sensor_id;sensor_type;location;lat;lon;timestamp;pressure;altitude;pressure_sealevel;temperature;humidity
6835;BME280;3455;42.150;24.734;2023-02-21T00:00:08;66492.81;;;12.27;35.49
6835;BME280;3455;42.150;24.734;2023-02-21T00:02:53;66541.22;;;12.43;34.82
6835;BME280;3455;42.150;24.734;2023-02-21T00:05:37;66538.31;;;12.52;34.65
6835;BME280;3455;42.150;24.734;2023-02-21T00:08:22;66518.56;;;12.41;35.09
6835;BME280;3455;42.150;24.734;2023-02-21T00:11:06;66502.50;;;12.32;34.30
6835;BME280;3455;42.150;24.734;2023-02-21T00:13:50;66537.50;;;12.54;34.39
6835;BME280;3455;42.150;24.734;2023-02-21T00:16:34;66547.56;;;12.49;33.95
6835;BME280;3455;42.150;24.734;2023-02-21T00:19:18;66574.31;;;12.82;33.20
6835;BME280;3455;42.150;24.734;2023-02-21T00:22:02;66580.41;;;13.01;32.60
6835;BME280;3455;42.150;24.734;2023-02-21T00:24:47;66580.19;;;12.92;33.31
6835;BME280;3455;42.150;24.734;2023-02-21T00:27:32;66573.97;;;12.91;33.36
6835;BME280;3455;42.150;24.734;2023-02-21T00:30:16;66580.22;;;12.69;33.36
6835;BME280;3455;42.150;24.734;2023-02-21T00:33:00;66575.09;;;13.03;32.79
6835;BME280;3455;42.150;24.734;2023-02-21T00:35:44;66584.00;;;13.09;32.66
6835;BME280;3455;42.150;24.734;2023-02-21T00:38:28;66527.53;;;12.63;33.23
6835;BME280;3455;42.150;24.734;2023-02-21T00:41:13;66576.78;;;12.66;33.44
6835;BME280;3455;42.150;24.734;2023-02-21T00:43:57;66578.25;;;12.81;33.07
6835;BME280;3455;42.150;24.734;2023-02-21T00:46:41;66566.38;;;12.57;33.19
6835;BME280;3455;42.150;24.734;2023-02-21T00:49:25;66578.59;;;12.95;32.79
6835;BME280;3455;42.150;24.734;2023-02-21T00:52:09;66583.91;;;13.04;32.61
6835;BME280;3455;42.150;24.734;2023-02-21T00:54:53;66596.59;;;13.15;31.99
6835;BME280;3455;42.150;24.734;2023-02-21T00:57:38;66607.25;;;13.11;32.38
6835;BME280;3455;42.150;24.734;2023-02-21T01:00:23;66623.63;;;13.23;32.46
6835;BME280;3455;42.150;24.734;2023-02-21T01:03:08;66634.88;;;13.31;32.18
6835;BME280;3455;42.150;24.734;2023-02-21T01:05:53;66601.13;;;13.15;32.26
6835;BME280;3455;42.150;24.734;2023-02-21T01:08:40;66635.22;;;13.22;32.15
6835;BME280;3455;42.150;24.734;2023-02-21T01:11:24;66591.53;;;12.93;32.15
6835;BME280;3455;42.150;24.734;2023-02-21T01:14:09;66599.38;;;13.02;32.18
6835;BME280;3455;42.150;24.734;2023-02-21T01:16:54;66635.88;;;13.50;31.60
6835;BME280;3455;42.150;24.734;2023-02-21T01:19:38;66607.22;;;13.34;31.68
6835;BME280;3455;42.150;24.734;2023-02-21T01:22:23;66620.38;;;13.30;31.80
6835;BME280;3455;42.150;24.734;2023-02-21T01:25:07;66629.53;;;13.22;32.01
6835;BME280;3455;42.150;24.734;2023-02-21T01:27:52;66678.47;;;13.56;31.47
6835;BME280;3455;42.150;24.734;2023-02-21T01:30:38;66627.00;;;13.22;32.20
6835;BME280;3455;42.150;24.734;2023-02-21T01:33:22;66571.69;;;12.66;32.48
6835;BME280;3455;42.150;24.734;2023-02-21T01:36:07;66579.97;;;12.94;32.64
6835;BME280;3455;42.150;24.734;2023-02-21T01:38:52;66587.78;;;13.25;31.85
6835;BME280;3455;42.150;24.734;2023-02-21T01:41:36;66556.50;;;12.93;32.25
6835;BME280;3455;42.150;24.734;2023-02-21T01:44:38;66596.84;;;13.02;32.32
6835;BME280;3455;42.150;24.734;2023-02-21T01:47:24;66593.81;;;13.17;32.27
6835;BME280;3455;42.150;24.734;2023-02-21T01:50:14;66575.00;;;12.98;32.70
6835;BME280;3455;42.150;24.734;2023-02-21T01:53:00;66602.59;;;13.07;32.74
6835;BME280;3455;42.150;24.734;2023-02-21T01:55:45;66577.88;;;13.01;32.64
6835;BME280;3455;42.150;24.734;2023-02-21T01:58:31;66570.50;;;12.88;32.90
6835;BME280;3455;42.150;24.734;2023-02-21T02:01:22;66555.25;;;12.88;33.33
6835;BME280;3455;42.150;24.734;2023-02-21T02:04:10;66525.75;;;12.34;34.12
6835;BME280;3455;42.150;24.734;2023-02-21T02:06:54;66507.25;;;12.18;34.28
6835;BME280;3455;42.150;24.734;2023-02-21T02:09:39;66507.72;;;12.14;34.40
6835;BME280;3455;42.150;24.734;2023-02-21T02:12:49;66524.66;;;12.60;34.05
6835;BME280;3455;42.150;24.734;2023-02-21T02:15:27;66557.59;;;12.67;33.64
6835;BME280;3455;42.150;24.734;2023-02-21T02:18:08;66583.09;;;12.94;33.48
6835;BME280;3455;42.150;24.734;2023-02-21T02:21:15;66536.78;;;12.49;34.10
6835;BME280;3455;42.150;24.734;2023-02-21T02:24:04;66513.75;;;12.17;34.61
6835;BME280;3455;42.150;24.734;2023-02-21T02:27:09;66583.47;;;12.63;34.09
6835;BME280;3455;42.150;24.734;2023-02-21T02:30:11;66491.09;;;12.03;34.09
6835;BME280;3455;42.150;24.734;2023-02-21T02:35:51;66497.34;;;12.27;33.74
6835;BME280;3455;42.150;24.734;2023-02-21T02:38:23;66537.97;;;12.50;33.61
6835;BME280;3455;42.150;24.734;2023-02-21T02:40:58;66534.75;;;12.22;33.87
6835;BME280;3455;42.150;24.734;2023-02-21T02:43:29;66508.19;;;12.21;33.89
6835;BME280;3455;42.150;24.734;2023-02-21T02:46:01;66514.41;;;12.11;33.88
6835;BME280;3455;42.150;24.734;2023-02-21T02:48:32;66540.03;;;12.42;33.23
6835;BME280;3455;42.150;24.734;2023-02-21T02:51:06;66575.63;;;12.65;32.99
6835;BME280;3455;42.150;24.734;2023-02-21T02:53:33;66569.38;;;12.75;33.07
6835;BME280;3455;42.150;24.734;2023-02-21T02:56:03;66558.75;;;12.57;32.85
6835;BME280;3455;42.150;24.734;2023-02-21T02:58:33;66539.69;;;12.62;32.94
6835;BME280;3455;42.150;24.734;2023-02-21T03:01:11;66534.50;;;12.46;32.82
6835;BME280;3455;42.150;24.734;2023-02-21T03:06:43;66576.28;;;12.93;32.51
6835;BME280;3455;42.150;24.734;2023-02-21T03:09:16;66588.06;;;13.01;32.51
6835;BME280;3455;42.150;24.734;2023-02-21T03:11:49;66613.00;;;13.16;32.08
6835;BME280;3455;42.150;24.734;2023-02-21T03:14:19;66602.84;;;12.94;32.64
6835;BME280;3455;42.150;24.734;2023-02-21T03:16:51;66603.06;;;13.14;32.31
6835;BME280;3455;42.150;24.734;2023-02-21T03:19:23;66579.72;;;13.07;32.09
6835;BME280;3455;42.150;24.734;2023-02-21T03:21:55;66651.41;;;13.14;32.01
6835;BME280;3455;42.150;24.734;2023-02-21T03:24:25;66637.53;;;13.24;31.89
6835;BME280;3455;42.150;24.734;2023-02-21T03:26:55;66575.09;;;13.03;32.43
6835;BME280;3455;42.150;24.734;2023-02-21T03:29:23;66565.34;;;12.60;32.83
6835;BME280;3455;42.150;24.734;2023-02-21T03:31:54;66546.75;;;12.39;33.46
6835;BME280;3455;42.150;24.734;2023-02-21T03:34:23;66567.50;;;12.69;33.34
6835;BME280;3455;42.150;24.734;2023-02-21T03:36:50;66580.22;;;12.69;33.20
6835;BME280;3455;42.150;24.734;2023-02-21T03:39:18;66583.78;;;12.99;32.75
6835;BME280;3455;42.150;24.734;2023-02-21T03:41:44;66544.38;;;12.82;32.69
6835;BME280;3455;42.150;24.734;2023-02-21T03:44:11;66567.75;;;12.67;33.14
6835;BME280;3455;42.150;24.734;2023-02-21T03:46:38;66589.47;;;12.77;32.85
6835;BME280;3455;42.150;24.734;2023-02-21T03:49:04;66594.78;;;12.87;32.60
6835;BME280;3455;42.150;24.734;2023-02-21T03:51:31;66583.19;;;12.99;32.48
6835;BME280;3455;42.150;24.734;2023-02-21T03:53:58;66569.09;;;13.00;32.50
6835;BME280;3455;42.150;24.734;2023-02-21T03:56:26;66569.56;;;12.96;32.72
6835;BME280;3455;42.150;24.734;2023-02-21T03:58:53;66599.19;;;12.81;32.22
6835;BME280;3455;42.150;24.734;2023-02-21T04:01:19;66516.03;;;12.53;33.45
6835;BME280;3455;42.150;24.734;2023-02-21T04:03:46;66584.84;;;12.73;32.82
6835;BME280;3455;42.150;24.734;2023-02-21T04:06:13;66605.41;;;12.82;32.94
6835;BME280;3455;42.150;24.734;2023-02-21T04:08:39;66552.03;;;12.71;33.48
6835;BME280;3455;42.150;24.734;2023-02-21T04:11:06;66597.09;;;12.77;33.27
6835;BME280;3455;42.150;24.734;2023-02-21T04:13:34;66574.66;;;12.96;33.05
6835;BME280;3455;42.150;24.734;2023-02-21T04:16:01;66617.22;;;12.79;33.42
6835;BME280;3455;42.150;24.734;2023-02-21T04:18:28;66597.31;;;12.98;33.10
6835;BME280;3455;42.150;24.734;2023-02-21T04:20:54;66560.59;;;12.74;32.96
6835;BME280;3455;42.150;24.734;2023-02-21T04:23:21;66612.09;;;13.02;32.42
6835;BME280;3455;42.150;24.734;2023-02-21T04:25:48;66635.22;;;13.11;32.39
6835;BME280;3455;42.150;24.734;2023-02-21T04:28:15;66622.72;;;13.20;32.09
6835;BME280;3455;42.150;24.734;2023-02-21T04:30:43;66618.94;;;13.03;32.85
6835;BME280;3455;42.150;24.734;2023-02-21T04:33:09;66591.53;;;13.04;32.85
6835;BME280;3455;42.150;24.734;2023-02-21T04:35:36;66600.28;;;13.05;32.46
6835;BME280;3455;42.150;24.734;2023-02-21T04:38:03;66608.75;;;13.03;32.75
6835;BME280;3455;42.150;24.734;2023-02-21T04:40:29;66583.91;;;12.93;32.56
6835;BME280;3455;42.150;24.734;2023-02-21T04:42:56;66616.97;;;12.93;32.97
6835;BME280;3455;42.150;24.734;2023-02-21T04:45:23;66602.63;;;12.96;32.89
6835;BME280;3455;42.150;24.734;2023-02-21T04:47:51;66597.41;;;13.02;32.53
6835;BME280;3455;42.150;24.734;2023-02-21T04:50:18;66616.59;;;13.01;32.71
6835;BME280;3455;42.150;24.734;2023-02-21T04:52:46;66588.28;;;13.10;32.40
6835;BME280;3455;42.150;24.734;2023-02-21T04:55:13;66649.09;;;13.35;31.97
6835;BME280;3455;42.150;24.734;2023-02-21T04:57:40;66633.47;;;13.32;31.77
6835;BME280;3455;42.150;24.734;2023-02-21T05:00:08;66653.00;;;13.56;31.56
6835;BME280;3455;42.150;24.734;2023-02-21T05:02:36;66613.00;;;13.05;31.98
6835;BME280;3455;42.150;24.734;2023-02-21T05:05:04;66600.53;;;13.14;32.24
6835;BME280;3455;42.150;24.734;2023-02-21T05:07:31;66609.78;;;13.22;31.82
6835;BME280;3455;42.150;24.734;2023-02-21T05:09:58;66631.66;;;12.92;32.07
6835;BME280;3455;42.150;24.734;2023-02-21T05:12:24;66656.25;;;13.28;31.87
6835;BME280;3455;42.150;24.734;2023-02-21T05:14:52;66617.97;;;13.34;31.75
6835;BME280;3455;42.150;24.734;2023-02-21T05:17:18;66654.66;;;13.31;31.61
6835;BME280;3455;42.150;24.734;2023-02-21T05:19:45;66616.25;;;13.10;31.89
6835;BME280;3455;42.150;24.734;2023-02-21T05:22:13;66578.59;;;12.95;32.27
6835;BME280;3455;42.150;24.734;2023-02-21T05:24:44;66607.47;;;13.20;31.74
6835;BME280;3455;42.150;24.734;2023-02-21T05:27:11;66644.47;;;13.08;32.11
6835;BME280;3455;42.150;24.734;2023-02-21T05:29:39;66578.13;;;12.99;32.48
6835;BME280;3455;42.150;24.734;2023-02-21T05:32:06;66678.72;;;13.43;31.72
6835;BME280;3455;42.150;24.734;2023-02-21T05:34:33;66653.25;;;13.43;31.76
6835;BME280;3455;42.150;24.734;2023-02-21T05:37:00;66627.59;;;13.11;32.35
6835;BME280;3455;42.150;24.734;2023-02-21T05:39:28;66618.31;;;13.25;32.12
6835;BME280;3455;42.150;24.734;2023-02-21T05:41:55;66607.34;;;13.04;32.36
6835;BME280;3455;42.150;24.734;2023-02-21T05:44:21;66626.75;;;13.24;32.19
6835;BME280;3455;42.150;24.734;2023-02-21T05:46:48;66652.19;;;13.24;32.22
6835;BME280;3455;42.150;24.734;2023-02-21T05:49:15;66648.47;;;13.57;31.62
6835;BME280;3455;42.150;24.734;2023-02-21T05:51:42;66683.41;;;13.74;31.71
6835;BME280;3455;42.150;24.734;2023-02-21T05:54:14;66648.84;;;13.48;32.12
6835;BME280;3455;42.150;24.734;2023-02-21T05:56:43;66642.59;;;13.47;31.94
6835;BME280;3455;42.150;24.734;2023-02-21T05:59:10;66689.41;;;13.89;31.46
6835;BME280;3455;42.150;24.734;2023-02-21T06:01:37;66693.41;;;14.04;31.38
6835;BME280;3455;42.150;24.734;2023-02-21T06:04:05;66746.88;;;14.26;31.06
6835;BME280;3455;42.150;24.734;2023-02-21T06:06:33;66719.09;;;14.24;31.20
6835;BME280;3455;42.150;24.734;2023-02-21T06:09:00;66731.63;;;14.04;31.29
6835;BME280;3455;42.150;24.734;2023-02-21T06:11:28;66733.69;;;14.19;31.34
6835;BME280;3455;42.150;24.734;2023-02-21T06:14:00;66781.09;;;14.61;30.87
6835;BME280;3455;42.150;24.734;2023-02-21T06:16:31;66797.91;;;14.53;30.42
6835;BME280;3455;42.150;24.734;2023-02-21T06:18:58;66773.94;;;14.57;30.62
6835;BME280;3455;42.150;24.734;2023-02-21T06:21:25;66855.69;;;15.00;30.15
6835;BME280;3455;42.150;24.734;2023-02-21T06:23:52;66918.69;;;15.51;29.64
6835;BME280;3455;42.150;24.734;2023-02-21T06:26:19;66916.03;;;15.85;29.40
6835;BME280;3455;42.150;24.734;2023-02-21T06:28:47;66943.34;;;16.14;28.99
6835;BME280;3455;42.150;24.734;2023-02-21T06:31:15;66992.09;;;16.34;28.83
6835;BME280;3455;42.150;24.734;2023-02-21T06:33:42;67016.16;;;16.69;27.72
6835;BME280;3455;42.150;24.734;2023-02-21T06:36:11;67029.00;;;16.85;27.63
6835;BME280;3455;42.150;24.734;2023-02-21T06:38:38;67115.44;;;17.50;26.96
6835;BME280;3455;42.150;24.734;2023-02-21T06:41:06;67105.97;;;17.76;26.75
6835;BME280;3455;42.150;24.734;2023-02-21T06:43:33;67158.50;;;18.09;26.16
6835;BME280;3455;42.150;24.734;2023-02-21T06:46:01;67309.22;;;19.33;25.09
6835;BME280;3455;42.150;24.734;2023-02-21T06:48:30;67422.28;;;20.19;24.03
6835;BME280;3455;42.150;24.734;2023-02-21T06:50:57;67409.50;;;20.08;23.95
6835;BME280;3455;42.150;24.734;2023-02-21T06:53:23;67298.94;;;19.33;25.08
6835;BME280;3455;42.150;24.734;2023-02-21T06:55:50;67289.34;;;19.38;25.18
6835;BME280;3455;42.150;24.734;2023-02-21T06:58:17;67302.59;;;19.77;24.65
6835;BME280;3455;42.150;24.734;2023-02-21T07:00:44;67262.94;;;19.01;25.55
6835;BME280;3455;42.150;24.734;2023-02-21T07:03:10;67205.41;;;18.78;25.80
6835;BME280;3455;42.150;24.734;2023-02-21T07:05:39;67242.97;;;19.02;25.71
6835;BME280;3455;42.150;24.734;2023-02-21T07:08:05;67196.53;;;18.45;26.38
6835;BME280;3455;42.150;24.734;2023-02-21T07:10:32;67177.25;;;18.35;26.66
6835;BME280;3455;42.150;24.734;2023-02-21T07:12:59;67196.59;;;18.34;26.72
6835;BME280;3455;42.150;24.734;2023-02-21T07:15:25;67171.44;;;18.29;26.75
6835;BME280;3455;42.150;24.734;2023-02-21T07:17:52;67158.97;;;18.05;27.23
6835;BME280;3455;42.150;24.734;2023-02-21T07:20:19;67189.94;;;18.57;26.90
6835;BME280;3455;42.150;24.734;2023-02-21T07:22:47;67319.19;;;19.47;25.70
6835;BME280;3455;42.150;24.734;2023-02-21T07:25:16;67215.81;;;18.55;26.84
6835;BME280;3455;42.150;24.734;2023-02-21T07:27:43;67276.63;;;19.16;26.73
6835;BME280;3455;42.150;24.734;2023-02-21T07:30:12;67269.00;;;19.04;26.62
6835;BME280;3455;42.150;24.734;2023-02-21T07:32:41;67238.75;;;18.89;26.78
6835;BME280;3455;42.150;24.734;2023-02-21T07:35:08;67260.44;;;18.90;26.88
6835;BME280;3455;42.150;24.734;2023-02-21T07:37:35;67274.97;;;19.03;26.89
6835;BME280;3455;42.150;24.734;2023-02-21T07:40:04;67267.38;;;19.23;26.11
6835;BME280;3455;42.150;24.734;2023-02-21T07:42:32;67249.00;;;18.89;26.23
6835;BME280;3455;42.150;24.734;2023-02-21T07:44:59;67218.44;;;18.44;26.65
6835;BME280;3455;42.150;24.734;2023-02-21T07:47:26;67214.06;;;18.81;26.36
6835;BME280;3455;42.150;24.734;2023-02-21T07:49:53;67249.84;;;19.03;26.00
6835;BME280;3455;42.150;24.734;2023-02-21T07:52:21;67224.50;;;18.90;26.09
6835;BME280;3455;42.150;24.734;2023-02-21T07:54:48;67240.69;;;18.73;26.08
6835;BME280;3455;42.150;24.734;2023-02-21T07:57:19;67307.00;;;19.52;25.55
6835;BME280;3455;42.150;24.734;2023-02-21T07:59:46;67436.41;;;20.57;24.19
6835;BME280;3455;42.150;24.734;2023-02-21T08:02:13;67459.25;;;20.86;23.89
6835;BME280;3455;42.150;24.734;2023-02-21T08:04:40;67523.28;;;21.31;23.49
6835;BME280;3455;42.150;24.734;2023-02-21T08:07:07;67779.06;;;23.29;21.68
6835;BME280;3455;42.150;24.734;2023-02-21T08:09:35;67935.53;;;25.17;19.45
6835;BME280;3455;42.150;24.734;2023-02-21T08:12:03;68146.81;;;26.07;19.14
6835;BME280;3455;42.150;24.734;2023-02-21T08:14:31;68122.97;;;25.95;19.24
6835;BME280;3455;42.150;24.734;2023-02-21T08:16:57;68247.63;;;26.68;19.29
6835;BME280;3455;42.150;24.734;2023-02-21T08:19:24;68524.31;;;28.79;16.85
6835;BME280;3455;42.150;24.734;2023-02-21T08:21:51;68609.94;;;29.28;16.96
6835;BME280;3455;42.150;24.734;2023-02-21T08:24:18;68490.13;;;28.81;16.93
6835;BME280;3455;42.150;24.734;2023-02-21T08:26:45;68554.03;;;28.91;17.31
6835;BME280;3455;42.150;24.734;2023-02-21T08:29:12;68580.91;;;29.05;16.79
6835;BME280;3455;42.150;24.734;2023-02-21T08:31:41;68944.63;;;31.18;15.60
6835;BME280;3455;42.150;24.734;2023-02-21T08:34:09;69006.41;;;31.67;14.38
6835;BME280;3455;42.150;24.734;2023-02-21T08:36:38;68841.69;;;30.78;15.71
6835;BME280;3455;42.150;24.734;2023-02-21T08:39:06;68865.81;;;30.99;15.68
6835;BME280;3455;42.150;24.734;2023-02-21T08:41:34;68781.84;;;30.60;15.66
6835;BME280;3455;42.150;24.734;2023-02-21T08:44:04;68731.78;;;30.33;15.35
6835;BME280;3455;42.150;24.734;2023-02-21T08:46:31;68562.66;;;29.05;16.30
6835;BME280;3455;42.150;24.734;2023-02-21T08:49:00;68598.16;;;29.14;16.33
6835;BME280;3455;42.150;24.734;2023-02-21T08:51:28;68429.75;;;28.28;17.01
6835;BME280;3455;42.150;24.734;2023-02-21T08:53:55;68431.91;;;28.16;16.88
6835;BME280;3455;42.150;24.734;2023-02-21T08:56:23;68464.47;;;27.85;17.46
6835;BME280;3455;42.150;24.734;2023-02-21T08:58:50;68479.94;;;28.53;16.97
6835;BME280;3455;42.150;24.734;2023-02-21T09:01:18;68567.44;;;28.93;16.41
6835;BME280;3455;42.150;24.734;2023-02-21T09:03:45;68596.28;;;29.48;16.48
6835;BME280;3455;42.150;24.734;2023-02-21T09:06:13;68575.16;;;29.30;16.33
6835;BME280;3455;42.150;24.734;2023-02-21T09:08:40;68823.66;;;30.81;15.04
6835;BME280;3455;42.150;24.734;2023-02-21T09:11:07;68831.25;;;30.83;15.34
6835;BME280;3455;42.150;24.734;2023-02-21T09:13:34;68841.88;;;30.72;15.19
6835;BME280;3455;42.150;24.734;2023-02-21T09:16:02;68773.28;;;30.51;15.13
6835;BME280;3455;42.150;24.734;2023-02-21T09:18:30;68499.53;;;28.48;16.54
6835;BME280;3455;42.150;24.734;2023-02-21T09:20:57;68323.72;;;27.35;17.71
6835;BME280;3455;42.150;24.734;2023-02-21T09:23:27;68054.53;;;25.72;19.03
6835;BME280;3455;42.150;24.734;2023-02-21T09:25:54;68330.75;;;27.41;17.71
6835;BME280;3455;42.150;24.734;2023-02-21T09:28:22;68528.44;;;28.82;16.90
6835;BME280;3455;42.150;24.734;2023-02-21T09:30:49;68468.78;;;28.44;16.61
6835;BME280;3455;42.150;24.734;2023-02-21T09:33:16;68448.44;;;28.40;17.14
6835;BME280;3455;42.150;24.734;2023-02-21T09:35:43;68614.59;;;29.53;16.02
6835;BME280;3455;42.150;24.734;2023-02-21T09:38:10;68956.78;;;31.60;15.04
6835;BME280;3455;42.150;24.734;2023-02-21T09:40:42;69111.72;;;32.45;14.80
6835;BME280;3455;42.150;24.734;2023-02-21T09:43:14;69171.53;;;32.70;13.89
6835;BME280;3455;42.150;24.734;2023-02-21T09:45:44;69302.50;;;33.54;13.60
6835;BME280;3455;42.150;24.734;2023-02-21T09:48:13;69320.09;;;33.60;13.91
6835;BME280;3455;42.150;24.734;2023-02-21T09:50:43;69256.94;;;33.30;13.88
6835;BME280;3455;42.150;24.734;2023-02-21T09:53:15;68982.31;;;31.51;15.05
6835;BME280;3455;42.150;24.734;2023-02-21T09:55:47;68836.09;;;30.96;14.85
6835;BME280;3455;42.150;24.734;2023-02-21T09:58:17;68790.22;;;30.56;15.93
6835;BME280;3455;42.150;24.734;2023-02-21T10:00:45;69149.38;;;32.69;14.50
6835;BME280;3455;42.150;24.734;2023-02-21T10:03:42;69540.22;;;34.89;13.40
6835;BME280;3455;42.150;24.734;2023-02-21T10:06:19;69607.78;;;35.07;12.67
6835;BME280;3455;42.150;24.734;2023-02-21T10:08:53;69721.34;;;35.87;12.51
6835;BME280;3455;42.150;24.734;2023-02-21T10:11:32;69294.72;;;33.63;12.91
6835;BME280;3455;42.150;24.734;2023-02-21T10:14:15;69271.88;;;33.57;13.10
6835;BME280;3455;42.150;24.734;2023-02-21T10:16:50;69456.06;;;34.53;12.63
6835;BME280;3455;42.150;24.734;2023-02-21T10:19:22;69609.44;;;35.45;12.24
6835;BME280;3455;42.150;24.734;2023-02-21T10:21:54;69717.53;;;35.65;12.00
6835;BME280;3455;42.150;24.734;2023-02-21T10:24:24;69753.56;;;35.83;11.50
6835;BME280;3455;42.150;24.734;2023-02-21T10:26:57;69376.19;;;33.79;12.53
6835;BME280;3455;42.150;24.734;2023-02-21T10:29:33;69635.28;;;35.49;12.09
6835;BME280;3455;42.150;24.734;2023-02-21T10:32:02;69229.88;;;33.36;13.12
6835;BME280;3455;42.150;24.734;2023-02-21T10:34:30;69651.50;;;35.36;12.26
6835;BME280;3455;42.150;24.734;2023-02-21T10:37:02;69413.50;;;34.16;13.03
6835;BME280;3455;42.150;24.734;2023-02-21T10:39:33;69452.56;;;34.55;12.09
6835;BME280;3455;42.150;24.734;2023-02-21T10:42:03;69635.97;;;35.59;12.53
6835;BME280;3455;42.150;24.734;2023-02-21T10:44:34;69582.84;;;35.26;12.34
6835;BME280;3455;42.150;24.734;2023-02-21T10:47:04;69734.28;;;35.89;11.75
6835;BME280;3455;42.150;24.734;2023-02-21T10:49:40;69851.81;;;36.50;11.57
6835;BME280;3455;42.150;24.734;2023-02-21T10:52:11;69725.44;;;35.86;11.62
6835;BME280;3455;42.150;24.734;2023-02-21T10:54:38;69739.56;;;35.89;12.09
6835;BME280;3455;42.150;24.734;2023-02-21T10:57:09;69637.38;;;35.78;11.90
6835;BME280;3455;42.150;24.734;2023-02-21T10:59:40;69688.25;;;35.67;11.58
6835;BME280;3455;42.150;24.734;2023-02-21T11:02:27;69751.78;;;36.06;11.75
6835;BME280;3455;42.150;24.734;2023-02-21T11:04:56;69762.09;;;36.09;12.09
6835;BME280;3455;42.150;24.734;2023-02-21T11:07:33;70025.13;;;37.40;10.97
6835;BME280;3455;42.150;24.734;2023-02-21T11:10:01;70083.22;;;37.76;11.38
6835;BME280;3455;42.150;24.734;2023-02-21T11:12:29;70140.63;;;38.03;10.36
6835;BME280;3455;42.150;24.734;2023-02-21T11:15:14;70047.19;;;37.64;11.12
6835;BME280;3455;42.150;24.734;2023-02-21T11:17:41;69784.66;;;36.28;11.10
6835;BME280;3455;42.150;24.734;2023-02-21T11:20:17;69735.56;;;35.99;11.42
6835;BME280;3455;42.150;24.734;2023-02-21T11:22:46;69586.47;;;35.34;11.73
6835;BME280;3455;42.150;24.734;2023-02-21T11:25:21;69684.28;;;35.78;11.13
6835;BME280;3455;42.150;24.734;2023-02-21T11:28:02;69821.91;;;36.51;11.52
6835;BME280;3455;42.150;24.734;2023-02-21T11:30:30;69889.28;;;36.87;11.03
6835;BME280;3455;42.150;24.734;2023-02-21T11:32:59;69844.22;;;36.52;10.90
6835;BME280;3455;42.150;24.734;2023-02-21T11:35:28;69571.00;;;35.16;11.80
6835;BME280;3455;42.150;24.734;2023-02-21T11:37:56;69777.25;;;36.24;11.29
6835;BME280;3455;42.150;24.734;2023-02-21T11:40:40;69877.03;;;36.49;11.54
6835;BME280;3455;42.150;24.734;2023-02-21T11:43:18;70109.16;;;37.81;10.49
6835;BME280;3455;42.150;24.734;2023-02-21T11:46:02;69988.41;;;37.17;10.86
6835;BME280;3455;42.150;24.734;2023-02-21T11:48:33;69729.81;;;35.83;11.52
6835;BME280;3455;42.150;24.734;2023-02-21T11:51:05;69981.59;;;37.39;10.39
6835;BME280;3455;42.150;24.734;2023-02-21T11:53:38;69803.31;;;35.55;11.60
6835;BME280;3455;42.150;24.734;2023-02-21T11:56:14;70110.59;;;37.54;10.28
6835;BME280;3455;42.150;24.734;2023-02-21T11:58:52;70141.25;;;38.04;10.68
6835;BME280;3455;42.150;24.734;2023-02-21T12:01:25;70021.13;;;37.50;10.62
6835;BME280;3455;42.150;24.734;2023-02-21T12:04:06;70159.88;;;38.33;9.68
6835;BME280;3455;42.150;24.734;2023-02-21T12:06:39;70232.06;;;38.59;10.04
6835;BME280;3455;42.150;24.734;2023-02-21T12:09:11;70035.00;;;37.55;9.80
6835;BME280;3455;42.150;24.734;2023-02-21T12:11:51;70094.53;;;37.86;10.04
6835;BME280;3455;42.150;24.734;2023-02-21T12:14:45;70182.81;;;38.30;10.07
6835;BME280;3455;42.150;24.734;2023-02-21T12:17:27;70043.63;;;37.60;10.71
6835;BME280;3455;42.150;24.734;2023-02-21T12:20:14;70133.78;;;37.95;9.57
6835;BME280;3455;42.150;24.734;2023-02-21T12:22:57;70033.56;;;37.56;10.19
6835;BME280;3455;42.150;24.734;2023-02-21T12:25:29;70066.66;;;37.67;9.77
6835;BME280;3455;42.150;24.734;2023-02-21T12:28:02;69857.47;;;36.32;10.10
6835;BME280;3455;42.150;24.734;2023-02-21T12:30:53;69802.31;;;36.34;10.17
6835;BME280;3455;42.150;24.734;2023-02-21T12:33:33;69740.16;;;35.90;10.65
6835;BME280;3455;42.150;24.734;2023-02-21T12:36:12;69828.69;;;36.55;9.87
6835;BME280;3455;42.150;24.734;2023-02-21T12:38:52;70041.00;;;37.40;9.69
6835;BME280;3455;42.150;24.734;2023-02-21T12:41:30;69481.56;;;34.80;10.97
6835;BME280;3455;42.150;24.734;2023-02-21T12:44:10;69564.78;;;35.13;10.73
6835;BME280;3455;42.150;24.734;2023-02-21T12:46:42;69665.97;;;35.66;9.67
6835;BME280;3455;42.150;24.734;2023-02-21T12:49:15;69513.75;;;34.80;10.18
6835;BME280;3455;42.150;24.734;2023-02-21T12:51:47;69725.75;;;36.14;9.26
6835;BME280;3455;42.150;24.734;2023-02-21T12:54:19;69413.53;;;34.21;10.05
6835;BME280;3455;42.150;24.734;2023-02-21T12:56:52;69286.72;;;33.54;10.76
6835;BME280;3455;42.150;24.734;2023-02-21T12:59:26;69317.19;;;33.83;10.83
6835;BME280;3455;42.150;24.734;2023-02-21T13:02:00;69351.22;;;33.94;10.81
6835;BME280;3455;42.150;24.734;2023-02-21T13:04:34;69654.22;;;35.40;10.10
6835;BME280;3455;42.150;24.734;2023-02-21T13:07:05;69433.94;;;34.36;10.26
6835;BME280;3455;42.150;24.734;2023-02-21T13:09:49;69162.34;;;32.80;10.84
6835;BME280;3455;42.150;24.734;2023-02-21T13:12:20;69309.13;;;33.69;10.78
6835;BME280;3455;42.150;24.734;2023-02-21T13:14:52;69196.97;;;32.96;11.34
6835;BME280;3455;42.150;24.734;2023-02-21T13:17:22;69034.00;;;32.07;12.43
6835;BME280;3455;42.150;24.734;2023-02-21T13:19:53;69451.00;;;34.46;10.86
6835;BME280;3455;42.150;24.734;2023-02-21T13:25:42;69620.63;;;35.50;10.47
6835;BME280;3455;42.150;24.734;2023-02-21T13:28:14;69169.41;;;32.86;11.39
6835;BME280;3455;42.150;24.734;2023-02-21T13:30:45;69182.75;;;33.05;11.25
6835;BME280;3455;42.150;24.734;2023-02-21T13:33:27;68892.53;;;31.46;11.88
6835;BME280;3455;42.150;24.734;2023-02-21T13:35:57;69041.88;;;32.07;11.59
6835;BME280;3455;42.150;24.734;2023-02-21T13:38:26;68934.88;;;31.53;12.16
6835;BME280;3455;42.150;24.734;2023-02-21T13:41:03;69226.47;;;33.22;11.64
6835;BME280;3455;42.150;24.734;2023-02-21T13:43:32;69180.66;;;33.01;11.82
6835;BME280;3455;42.150;24.734;2023-02-21T13:46:24;69213.69;;;33.25;11.50
6835;BME280;3455;42.150;24.734;2023-02-21T13:49:38;69066.13;;;32.37;12.16
6835;BME280;3455;42.150;24.734;2023-02-21T13:55:25;69012.50;;;31.91;12.36